Time;durP1;ratioP1;P1;durP2;ratioP2;P2;SDS_P1;SDS_P2;PMS_P1;PMS_P2;Temp;Humidity;BMP_temperature;BMP_pressure;BME280_temperature;BME280_humidity;BME280_pressure;Samples;Min_cycle;Max_cycle;Signal;HPM_P1;HPM_P2
2020/12/04 00:01:40;;;;;;;6.78;1.50;;;7.80;65.10;;;;;;5026063;28;83363;-69
2020/12/04 00:04:06;;;;;;;3.88;1.27;;;7.70;65.30;;;;;;5026097;28;80607;-71
2020/12/04 00:06:34;;;;;;;5.07;2.28;;;7.70;65.40;;;;;;5027584;28;79761;-70
2020/12/04 00:09:01;;;;;;;6.88;1.35;;;7.70;65.70;;;;;;5027562;28;80561;-71
2020/12/04 00:11:32;;;;;;;4.35;1.80;;;7.70;65.90;;;;;;5028063;28;79898;-70
2020/12/04 00:13:58;;;;;;;4.80;1.90;;;7.70;66.10;;;;;;5026226;28;80448;-69
2020/12/04 00:16:24;;;;;;;4.90;1.52;;;7.70;66.20;;;;;;5026323;28;80964;-69
2020/12/04 00:18:50;;;;;;;6.25;1.85;;;7.70;66.50;;;;;;5026065;28;80750;-70
2020/12/04 00:21:15;;;;;;;4.85;1.52;;;7.70;66.60;;;;;;5025936;28;80611;-70
2020/12/04 00:23:41;;;;;;;4.07;1.60;;;7.70;67.10;;;;;;5025472;28;82540;-70
2020/12/04 00:26:07;;;;;;;5.45;1.70;;;7.70;67.70;;;;;;5025779;28;82785;-70
2020/12/04 00:28:33;;;;;;;4.75;2.20;;;7.60;68.20;;;;;;5025999;28;81171;-70
2020/12/04 00:30:58;;;;;;;5.65;2.53;;;7.50;68.60;;;;;;5025993;28;82801;-69
2020/12/04 00:33:24;;;;;;;4.50;2.25;;;7.60;69.20;;;;;;5027278;28;79823;-68
2020/12/04 00:35:50;;;;;;;4.03;1.92;;;7.60;70.20;;;;;;5026204;28;83556;-71
2020/12/04 00:38:16;;;;;;;8.45;2.72;;;7.60;70.60;;;;;;5027277;28;80531;-70
2020/12/04 00:40:41;;;;;;;5.35;2.50;;;7.60;71.00;;;;;;5027679;28;80655;-70
2020/12/04 00:43:07;;;;;;;4.93;2.00;;;7.60;71.00;;;;;;5026111;28;82450;-71
2020/12/04 00:45:33;;;;;;;6.10;2.60;;;7.60;71.70;;;;;;5027615;28;80449;-70
2020/12/04 00:47:59;;;;;;;5.07;2.25;;;7.60;72.10;;;;;;5026025;28;82400;-70
2020/12/04 00:50:24;;;;;;;5.55;2.60;;;7.60;72.10;;;;;;5027336;28;80615;-70
2020/12/04 00:52:53;;;;;;;6.72;2.20;;;7.60;72.50;;;;;;5027817;28;80048;-70
2020/12/04 00:55:18;;;;;;;20.38;2.63;;;7.60;72.50;;;;;;5025474;28;82530;-71
2020/12/04 00:57:44;;;;;;;7.80;3.17;;;7.60;72.60;;;;;;5027239;28;80334;-71
2020/12/04 01:00:11;;;;;;;6.95;2.67;;;7.60;72.70;;;;;;5025438;28;80638;-72
2020/12/04 01:02:37;;;;;;;5.40;2.55;;;7.70;72.70;;;;;;5025789;28;80480;-71
2020/12/04 01:05:04;;;;;;;7.03;2.50;;;7.80;73.00;;;;;;5026906;28;80760;-70
2020/12/04 01:07:30;;;;;;;6.38;2.60;;;7.80;73.00;;;;;;5025573;28;83586;-70
2020/12/04 01:09:56;;;;;;;6.22;3.25;;;7.80;73.00;;;;;;5029203;28;82442;-71
2020/12/04 01:12:21;;;;;;;8.45;2.88;;;7.90;73.00;;;;;;5028383;28;82645;-71
2020/12/04 01:14:47;;;;;;;4.20;2.50;;;7.90;73.50;;;;;;5028829;28;81076;-70
2020/12/04 01:17:14;;;;;;;6.93;2.05;;;7.80;73.50;;;;;;5028643;28;80253;-70
2020/12/04 01:19:40;;;;;;;5.32;2.53;;;7.80;73.90;;;;;;5028750;28;81822;-69
2020/12/04 01:22:08;;;;;;;6.22;2.60;;;7.80;74.20;;;;;;5030282;28;80264;-69
2020/12/04 01:24:34;;;;;;;4.43;2.47;;;7.90;74.00;;;;;;5028215;28;81563;-72
2020/12/04 01:27:00;;;;;;;6.50;3.17;;;7.90;74.20;;;;;;5028482;28;81183;-70
2020/12/04 01:29:26;;;;;;;4.72;2.80;;;7.80;74.30;;;;;;5030282;28;80569;-68
2020/12/04 01:31:51;;;;;;;6.57;2.55;;;7.80;74.20;;;;;;5028575;28;82538;-69
2020/12/04 01:34:17;;;;;;;5.20;2.00;;;7.90;74.60;;;;;;5028423;28;80675;-70
2020/12/04 01:36:43;;;;;;;5.25;2.65;;;7.90;74.80;;;;;;5028405;28;82513;-69
2020/12/04 01:39:09;;;;;;;7.63;2.63;;;7.90;75.20;;;;;;5029241;28;80751;-69
2020/12/04 01:41:36;;;;;;;4.28;2.25;;;7.90;75.20;;;;;;5031941;28;81292;-71
2020/12/04 01:44:03;;;;;;;6.03;2.60;;;7.90;75.40;;;;;;5032612;28;81122;-71
2020/12/04 01:46:29;;;;;;;5.65;2.33;;;7.90;75.60;;;;;;5031684;28;80061;-71
2020/12/04 01:48:55;;;;;;;5.72;2.65;;;7.90;75.80;;;;;;5028856;28;82979;-75
2020/12/04 01:51:22;;;;;;;4.32;1.98;;;7.90;75.90;;;;;;5029580;28;81415;-70
2020/12/04 01:53:51;;;;;;;6.63;2.35;;;7.90;75.90;;;;;;5031190;28;81170;-73
2020/12/04 01:56:17;;;;;;;4.60;2.42;;;7.90;76.00;;;;;;5031962;28;83727;-70
2020/12/04 01:58:42;;;;;;;3.75;1.80;;;7.80;76.30;;;;;;5031244;28;80595;-71
2020/12/04 02:01:15;;;;;;;7.13;1.90;;;7.90;76.70;;;;;;5028301;28;82049;-69
2020/12/04 02:03:42;;;;;;;5.65;1.85;;;7.90;76.70;;;;;;5029606;28;79851;-69
2020/12/04 02:06:19;;;;;;;3.38;1.70;;;7.90;76.90;;;;;;5028087;28;80671;-70
2020/12/04 02:09:04;;;;;;;3.13;1.38;;;8.00;76.90;;;;;;5029620;28;79750;-70
2020/12/04 02:11:31;;;;;;;3.60;1.35;;;8.00;76.90;;;;;;5029659;28;80769;-69
2020/12/04 02:13:58;;;;;;;4.03;1.55;;;8.10;77.00;;;;;;5027594;28;79853;-69
2020/12/04 02:16:24;;;;;;;4.28;1.70;;;8.20;77.00;;;;;;5028008;28;82130;-69
2020/12/04 02:18:51;;;;;;;2.85;1.60;;;8.30;76.90;;;;;;5027076;28;83091;-71
2020/12/04 02:21:17;;;;;;;4.93;1.27;;;8.40;77.20;;;;;;5027013;28;81480;-70
2020/12/04 02:23:49;;;;;;;4.60;1.70;;;8.40;76.90;;;;;;5027500;28;82066;-69
2020/12/04 02:26:18;;;;;;;3.85;1.50;;;8.40;77.00;;;;;;5027580;28;82483;-69
2020/12/04 02:28:44;;;;;;;7.03;2.05;;;8.40;77.50;;;;;;5027784;28;81425;-70
2020/12/04 02:31:10;;;;;;;4.80;1.85;;;8.50;77.20;;;;;;5027534;28;82631;-70
2020/12/04 02:33:35;;;;;;;3.55;1.45;;;8.50;77.30;;;;;;5029043;28;80491;-70
2020/12/04 02:36:04;;;;;;;2.35;1.50;;;8.50;77.60;;;;;;5027584;28;82635;-69
2020/12/04 02:38:30;;;;;;;2.53;1.40;;;8.60;77.70;;;;;;5027134;28;82774;-70
2020/12/04 02:40:56;;;;;;;3.47;1.20;;;8.50;78.00;;;;;;5027596;28;80222;-69
2020/12/04 02:43:22;;;;;;;3.67;1.50;;;8.60;77.90;;;;;;5027090;28;81191;-69
2020/12/04 02:45:49;;;;;;;2.47;1.52;;;8.60;77.80;;;;;;5027431;28;80348;-72
2020/12/04 02:48:15;;;;;;;3.20;1.42;;;8.60;77.90;;;;;;5027324;28;81019;-69
2020/12/04 02:50:41;;;;;;;2.80;1.50;;;8.60;78.10;;;;;;5027178;28;83121;-70
2020/12/04 02:53:07;;;;;;;5.53;1.73;;;8.70;78.10;;;;;;5026796;28;82663;-70
2020/12/04 02:55:33;;;;;;;4.22;1.50;;;8.70;78.40;;;;;;5029086;28;79832;-70
2020/12/04 02:57:59;;;;;;;3.33;1.50;;;8.60;78.20;;;;;;5028990;28;79781;-70
2020/12/04 03:00:27;;;;;;;5.20;1.10;;;8.70;78.20;;;;;;5026877;28;80616;-69
2020/12/04 03:02:53;;;;;;;4.38;1.27;;;8.70;78.20;;;;;;5027330;28;83787;-70
2020/12/04 03:05:19;;;;;;;4.60;2.00;;;8.70;78.20;;;;;;5027433;28;80425;-70
2020/12/04 03:07:45;;;;;;;2.03;1.05;;;8.70;78.10;;;;;;5027023;28;80711;-69
2020/12/04 03:10:11;;;;;;;3.53;1.45;;;8.70;78.10;;;;;;5028732;28;80023;-70
2020/12/04 03:12:38;;;;;;;4.40;1.55;;;8.70;77.90;;;;;;5028619;28;81364;-71
2020/12/04 03:15:05;;;;;;;1.73;0.90;;;8.70;77.90;;;;;;5028619;28;80028;-71
2020/12/04 03:17:31;;;;;;;6.20;1.20;;;8.70;77.90;;;;;;5026750;28;82610;-70
2020/12/04 03:19:57;;;;;;;4.07;1.33;;;8.80;77.60;;;;;;5027054;28;82168;-71
2020/12/04 03:22:24;;;;;;;4.53;1.17;;;8.90;77.50;;;;;;5029318;28;79968;-70
2020/12/04 03:24:50;;;;;;;3.72;1.65;;;8.90;77.60;;;;;;5028582;28;80526;-70
2020/12/04 03:27:16;;;;;;;2.72;1.00;;;8.90;77.50;;;;;;5028953;28;80563;-71
2020/12/04 03:29:42;;;;;;;4.65;1.05;;;8.90;77.50;;;;;;5028029;28;79898;-74
2020/12/04 03:32:08;;;;;;;3.13;1.00;;;8.90;77.80;;;;;;5028784;28;80526;-71
2020/12/04 03:34:34;;;;;;;5.50;1.15;;;8.90;77.60;;;;;;5026861;28;80396;-70
2020/12/04 03:37:00;;;;;;;7.03;1.52;;;8.90;77.80;;;;;;5026600;28;82906;-70
2020/12/04 03:39:27;;;;;;;3.00;0.60;;;8.90;77.70;;;;;;5026998;28;80536;-71
2020/12/04 03:41:53;;;;;;;2.78;0.73;;;8.90;77.80;;;;;;5027225;28;82353;-71
2020/12/04 03:44:19;;;;;;;7.10;1.38;;;8.90;77.90;;;;;;5028408;28;79690;-70
2020/12/04 03:46:48;;;;;;;4.93;0.93;;;8.90;77.90;;;;;;5027875;28;80613;-69
2020/12/04 03:49:15;;;;;;;6.60;1.80;;;8.90;78.10;;;;;;5027970;28;80023;-69
2020/12/04 03:51:44;;;;;;;3.20;0.88;;;8.90;77.90;;;;;;5026212;28;82356;-70
2020/12/04 03:54:11;;;;;;;4.30;0.90;;;8.90;78.10;;;;;;5027887;28;80062;-69
2020/12/04 03:56:37;;;;;;;6.38;1.27;;;8.90;78.10;;;;;;5026073;28;82930;-69
2020/12/04 03:59:03;;;;;;;3.47;0.90;;;8.90;78.10;;;;;;5026114;28;81224;-70
2020/12/04 04:01:33;;;;;;;5.20;0.60;;;8.90;78.30;;;;;;5026022;28;83427;-70
2020/12/04 04:03:59;;;;;;;4.15;0.80;;;8.90;78.40;;;;;;5025821;28;82574;-70
2020/12/04 04:06:25;;;;;;;3.20;1.08;;;8.80;79.00;;;;;;5027462;28;80495;-69
2020/12/04 04:08:52;;;;;;;4.75;1.20;;;8.70;80.80;;;;;;5026020;28;82338;-70
2020/12/04 04:11:18;;;;;;;5.32;0.93;;;8.60;81.70;;;;;;5027664;28;80486;-69
2020/12/04 04:13:44;;;;;;;7.25;1.48;;;8.40;84.30;;;;;;5026639;28;80927;-70
2020/12/04 04:16:09;;;;;;;2.80;1.33;;;8.30;86.00;;;;;;5026598;28;82917;-73
2020/12/04 04:18:37;;;;;;;3.97;1.50;;;8.10;87.00;;;;;;5027373;28;82671;-70
2020/12/04 04:21:08;;;;;;;4.53;0.90;;;8.00;87.80;;;;;;5027512;28;79624;-72
2020/12/04 04:23:33;;;;;;;2.22;0.40;;;7.90;87.50;;;;;;5026011;28;80633;-70
2020/12/04 04:25:59;;;;;;;1.52;0.30;;;7.60;87.10;;;;;;5025631;28;82516;-70
2020/12/04 04:28:25;;;;;;;1.40;0.30;;;7.40;87.50;;;;;;5025496;28;80682;-71
2020/12/04 04:30:51;;;;;;;1.83;0.28;;;7.30;87.60;;;;;;5025716;28;79814;-71
2020/12/04 04:33:17;;;;;;;1.65;0.22;;;7.10;87.70;;;;;;5025378;28;80411;-70
2020/12/04 04:35:43;;;;;;;1.95;0.20;;;6.90;87.80;;;;;;5025850;28;83321;-70
2020/12/04 04:38:08;;;;;;;1.50;0.50;;;6.80;88.00;;;;;;5027026;28;80717;-71
2020/12/04 04:40:34;;;;;;;1.33;0.10;;;6.70;88.30;;;;;;5027515;28;81161;-70
2020/12/04 04:43:13;;;;;;;0.57;0.10;;;6.70;88.20;;;;;;5027242;28;81164;-71
2020/12/04 04:45:43;;;;;;;0.65;0.10;;;6.60;87.60;;;;;;5030222;28;81035;-70
2020/12/04 04:48:17;;;;;;;1.30;0.30;;;6.60;87.70;;;;;;5031118;28;80177;-70
2020/12/04 04:50:47;;;;;;;2.83;0.10;;;6.60;87.20;;;;;;5031299;28;79999;-71
2020/12/04 04:53:14;;;;;;;0.73;0.10;;;6.50;87.60;;;;;;5031433;28;80765;-70
2020/12/04 04:55:43;;;;;;;3.67;0.88;;;6.50;87.30;;;;;;5029064;28;81649;-70
2020/12/04 04:58:13;;;;;;;0.57;0.10;;;6.50;86.90;;;;;;5030697;28;80027;-69
2020/12/04 05:00:39;;;;;;;1.63;0.20;;;6.50;87.30;;;;;;5028652;28;80660;-70
2020/12/04 05:03:09;;;;;;;1.02;0.28;;;6.50;87.20;;;;;;5029588;28;83306;-70
2020/12/04 05:05:45;;;;;;;2.17;0.47;;;6.50;86.50;;;;;;5028962;28;82714;-69
2020/12/04 05:08:19;;;;;;;1.27;0.30;;;6.50;85.90;;;;;;5028898;28;80382;-69
2020/12/04 05:10:49;;;;;;;2.17;0.10;;;6.40;85.90;;;;;;5030767;28;81128;-70
2020/12/04 05:13:20;;;;;;;2.92;0.63;;;6.40;85.50;;;;;;5029067;28;82693;-69
2020/12/04 05:15:46;;;;;;;2.05;0.10;;;6.40;85.00;;;;;;5028886;28;80051;-69
2020/12/04 05:18:13;;;;;;;3.63;0.50;;;6.30;84.30;;;;;;5030249;28;80461;-70
2020/12/04 05:20:41;;;;;;;1.23;0.55;;;6.20;83.10;;;;;;5030825;28;79915;-70
2020/12/04 05:23:07;;;;;;;4.70;0.32;;;6.20;82.90;;;;;;5028590;28;81423;-69
2020/12/04 05:25:35;;;;;;;3.08;0.20;;;6.20;82.20;;;;;;5028704;28;80697;-70
2020/12/04 05:28:24;;;;;;;2.58;0.20;;;6.20;82.20;;;;;;5028162;28;81641;-69
2020/12/04 05:31:05;;;;;;;1.55;0.10;;;6.30;80.80;;;;;;5029989;28;80502;-69
2020/12/04 05:33:31;;;;;;;1.90;0.43;;;6.30;79.70;;;;;;5028332;28;81254;-69
2020/12/04 05:35:57;;;;;;;4.28;0.40;;;6.40;78.60;;;;;;5030341;28;80518;-69
2020/12/04 05:38:23;;;;;;;1.13;0.20;;;6.50;76.80;;;;;;5030520;28;79851;-69
2020/12/04 05:41:04;;;;;;;7.28;0.22;;;6.50;75.90;;;;;;5027987;28;81853;-70
2020/12/04 05:43:38;;;;;;;2.25;0.35;;;6.60;75.00;;;;;;5028414;28;80929;-70
2020/12/04 05:46:19;;;;;;;1.90;0.20;;;6.60;74.50;;;;;;5029679;28;80970;-70
2020/12/04 05:49:07;;;;;;;1.60;0.20;;;6.70;72.90;;;;;;5028580;28;82461;-70
2020/12/04 05:51:39;;;;;;;1.88;0.30;;;6.80;72.50;;;;;;5030121;28;80611;-71
2020/12/04 05:54:10;;;;;;;1.65;0.15;;;6.80;71.10;;;;;;5029685;28;79893;-70
2020/12/04 05:56:38;;;;;;;2.33;0.10;;;6.90;70.80;;;;;;5028959;28;81175;-70
2020/12/04 05:59:07;;;;;;;3.67;0.28;;;6.90;70.70;;;;;;5028956;28;82241;-70
2020/12/04 06:01:33;;;;;;;3.50;0.20;;;6.90;69.60;;;;;;5029998;28;81231;-70
2020/12/04 06:03:58;;;;;;;2.15;0.25;;;6.90;69.00;;;;;;5028020;28;80748;-70
2020/12/04 06:06:32;;;;;;;2.00;0.30;;;6.90;68.50;;;;;;5027802;28;82828;-71
2020/12/04 06:09:06;;;;;;;0.88;0.20;;;6.90;68.60;;;;;;5029902;28;80879;-70
2020/12/04 06:11:38;;;;;;;2.05;0.50;;;6.90;68.20;;;;;;5027941;28;80948;-71
2020/12/04 06:14:23;;;;;;;1.73;0.22;;;6.90;68.20;;;;;;5027485;28;82642;-70
2020/12/04 06:17:00;;;;;;;2.05;0.30;;;6.80;67.60;;;;;;5027903;28;83772;-70
2020/12/04 06:19:27;;;;;;;2.80;0.35;;;6.80;68.20;;;;;;5029550;28;80422;-69
2020/12/04 06:22:09;;;;;;;1.40;0.20;;;6.70;68.20;;;;;;5029518;28;80956;-70
2020/12/04 06:24:55;;;;;;;1.45;0.30;;;6.70;67.90;;;;;;5027603;28;82584;-70
2020/12/04 06:28:14;;;;;;;2.35;0.73;;;6.70;67.70;;;;;;5017079;28;81694;-71
2020/12/04 06:31:03;;;;;;;1.13;0.20;;;6.80;66.50;;;;;;4970464;28;81872;-72
2020/12/04 06:33:30;;;;;;;1.73;0.38;;;6.70;67.20;;;;;;4986474;28;81581;-71
2020/12/04 06:35:56;;;;;;;1.63;0.50;;;6.70;66.80;;;;;;5018225;28;80791;-71
2020/12/04 06:38:34;;;;;;;2.03;0.30;;;6.70;66.30;;;;;;5027797;28;82864;-65
2020/12/04 06:41:28;;;;;;;1.42;0.50;;;6.80;66.10;;;;;;5028048;28;82572;-66
2020/12/04 06:44:01;;;;;;;1.45;0.15;;;6.80;65.20;;;;;;5024726;28;82157;-69
2020/12/04 06:46:28;;;;;;;2.55;0.28;;;6.70;64.70;;;;;;5029229;28;80733;-68
2020/12/04 06:49:08;;;;;;;6.90;0.52;;;6.70;64.10;;;;;;5027899;28;83318;-63
2020/12/04 06:51:35;;;;;;;1.08;0.30;;;6.80;63.00;;;;;;5027213;28;79999;-65
2020/12/04 06:54:01;;;;;;;1.65;0.10;;;6.70;62.10;;;;;;5027361;28;79892;-67
2020/12/04 06:56:26;;;;;;;0.63;0.30;;;6.70;60.60;;;;;;5027108;28;80340;-63
2020/12/04 06:58:52;;;;;;;1.55;0.40;;;6.80;60.30;;;;;;5028894;28;80930;-64
2020/12/04 07:01:18;;;;;;;3.22;0.20;;;6.70;60.20;;;;;;5028915;28;79998;-66
2020/12/04 07:03:45;;;;;;;0.13;0.08;;;6.70;60.30;;;;;;5026839;28;81956;-64
2020/12/04 07:06:11;;;;;;;3.22;0.10;;;6.70;60.60;;;;;;5026390;28;81461;-64
2020/12/04 07:08:53;;;;;;;5.30;0.40;;;6.70;61.30;;;;;;5029095;28;79921;-63
2020/12/04 07:11:19;;;;;;;0.47;0.10;;;6.60;62.10;;;;;;5027153;28;82553;-66
2020/12/04 07:13:45;;;;;;;1.08;0.10;;;6.60;63.10;;;;;;5027170;28;82706;-67
2020/12/04 07:16:11;;;;;;;0.82;0.10;;;6.60;63.80;;;;;;5029283;28;80693;-64
2020/12/04 07:18:38;;;;;;;1.63;0.65;;;6.50;64.30;;;;;;5028582;28;80706;-65
2020/12/04 07:21:03;;;;;;;3.97;0.50;;;6.60;64.70;;;;;;5027632;28;82340;-67
2020/12/04 07:23:29;;;;;;;6.10;0.30;;;6.50;65.30;;;;;;5029427;28;80875;-68
2020/12/04 07:25:56;;;;;;;2.28;0.15;;;6.50;65.60;;;;;;5029025;28;79873;-67
2020/12/04 07:28:22;;;;;;;0.68;0.10;;;6.50;65.90;;;;;;5026892;28;80812;-67
2020/12/04 07:30:48;;;;;;;1.17;0.32;;;6.60;66.10;;;;;;5026542;28;79736;-67
2020/12/04 07:33:13;;;;;;;2.05;0.38;;;6.60;66.20;;;;;;5028229;28;81012;-64
2020/12/04 07:35:39;;;;;;;1.20;0.32;;;6.60;66.20;;;;;;5026990;28;80333;-66
2020/12/04 07:38:08;;;;;;;1.77;0.13;;;6.70;66.30;;;;;;5028304;28;80397;-68
2020/12/04 07:40:34;;;;;;;3.17;0.30;;;6.70;65.70;;;;;;5028324;28;80273;-64
2020/12/04 07:43:03;;;;;;;4.88;0.52;;;6.70;65.30;;;;;;5026743;28;80805;-63
2020/12/04 07:45:29;;;;;;;1.00;0.10;;;6.60;65.10;;;;;;5026707;28;79928;-68
2020/12/04 07:47:54;;;;;;;1.08;0.10;;;6.70;64.50;;;;;;5026520;28;82937;-69
2020/12/04 07:50:22;;;;;;;2.15;0.52;;;6.70;64.50;;;;;;5026714;28;81464;-63
2020/12/04 07:52:52;;;;;;;4.00;1.13;;;6.70;64.00;;;;;;5028133;28;81123;-66
2020/12/04 07:55:23;;;;;;;2.92;0.43;;;6.70;63.80;;;;;;5026563;28;81279;-69
2020/12/04 07:58:02;;;;;;;1.15;0.43;;;6.70;63.50;;;;;;5028857;28;80838;-67
2020/12/04 08:00:32;;;;;;;2.47;0.52;;;6.80;62.70;;;;;;5026366;28;80077;-68
2020/12/04 08:03:11;;;;;;;3.30;0.77;;;6.80;62.30;;;;;;5027814;28;80395;-65
2020/12/04 08:05:38;;;;;;;2.08;0.28;;;6.90;61.80;;;;;;5026271;28;82362;-63
2020/12/04 08:08:05;;;;;;;3.03;0.60;;;6.90;61.10;;;;;;5026417;28;82316;-70
2020/12/04 08:10:30;;;;;;;2.03;0.47;;;6.90;61.60;;;;;;5026335;28;82020;-62
2020/12/04 08:12:57;;;;;;;1.90;0.73;;;7.00;60.70;;;;;;5028376;28;80573;-65
2020/12/04 08:15:23;;;;;;;3.22;0.40;;;7.00;60.00;;;;;;5029932;28;80414;-71
2020/12/04 08:18:10;;;;;;;1.17;0.30;;;7.00;60.50;;;;;;5028676;28;80626;-64
2020/12/04 08:20:36;;;;;;;1.23;0.40;;;7.00;59.70;;;;;;5026790;28;82585;-66
2020/12/04 08:23:02;;;;;;;1.67;0.30;;;7.10;59.70;;;;;;5025990;28;82937;-66
2020/12/04 08:25:30;;;;;;;2.63;1.23;;;7.10;60.10;;;;;;5027388;28;80181;-64
2020/12/04 08:27:57;;;;;;;8.27;1.35;;;7.20;60.50;;;;;;5028817;28;79778;-64
2020/12/04 08:30:25;;;;;;;1.92;0.60;;;7.20;59.70;;;;;;5026780;28;80009;-65
2020/12/04 08:32:54;;;;;;;4.57;0.77;;;7.20;60.00;;;;;;5026127;28;82722;-69
2020/12/04 08:35:24;;;;;;;2.47;1.02;;;7.30;59.80;;;;;;5026021;28;80865;-63
2020/12/04 08:37:51;;;;;;;5.68;0.73;;;7.30;59.60;;;;;;5026050;28;81360;-68
2020/12/04 08:40:29;;;;;;;5.30;1.05;;;7.30;59.50;;;;;;5026054;28;80026;-67
2020/12/04 08:43:14;;;;;;;1.58;0.47;;;7.40;59.30;;;;;;5026098;28;80669;-68
2020/12/04 08:45:45;;;;;;;1.20;0.30;;;7.40;59.20;;;;;;5025495;28;81679;-68
2020/12/04 08:48:16;;;;;;;4.63;0.77;;;7.40;58.80;;;;;;5025832;28;81609;-67
2020/12/04 08:50:49;;;;;;;4.10;0.63;;;7.40;58.30;;;;;;5025823;28;80834;-65
2020/12/04 08:53:19;;;;;;;1.85;0.45;;;7.50;58.30;;;;;;5027209;28;80552;-65
2020/12/04 08:55:56;;;;;;;3.30;0.73;;;7.50;58.30;;;;;;5025758;28;80908;-63
2020/12/04 08:58:25;;;;;;;1.90;0.45;;;7.50;58.10;;;;;;5025455;28;83563;-65
2020/12/04 09:00:52;;;;;;;2.70;0.20;;;7.50;58.20;;;;;;5025340;28;81729;-66
2020/12/04 09:03:19;;;;;;;4.60;0.40;;;7.50;58.00;;;;;;5026756;28;80808;-63
2020/12/04 09:05:45;;;;;;;4.55;0.32;;;7.50;58.10;;;;;;5025354;28;82387;-69
2020/12/04 09:08:11;;;;;;;4.82;0.30;;;7.50;58.10;;;;;;5025082;28;80409;-63
2020/12/04 09:10:38;;;;;;;2.00;0.52;;;7.50;58.10;;;;;;5025550;28;83049;-65
2020/12/04 09:13:05;;;;;;;2.63;0.30;;;7.50;58.50;;;;;;5027170;28;80753;-64
2020/12/04 09:15:31;;;;;;;1.25;0.40;;;7.50;58.90;;;;;;5026545;28;83283;-68
2020/12/04 09:17:58;;;;;;;1.15;0.20;;;7.50;59.20;;;;;;5025216;28;82668;-65
2020/12/04 09:20:24;;;;;;;2.35;0.43;;;7.60;59.40;;;;;;5025505;28;82175;-65
2020/12/04 09:22:51;;;;;;;2.00;0.30;;;7.60;59.60;;;;;;5025551;28;80754;-65
2020/12/04 09:25:18;;;;;;;2.00;0.35;;;7.60;59.70;;;;;;5025255;28;82718;-68
2020/12/04 09:27:44;;;;;;;2.15;0.25;;;7.70;60.00;;;;;;5025157;28;83417;-66
2020/12/04 09:30:13;;;;;;;2.40;0.20;;;7.60;60.20;;;;;;5027359;28;82830;-66
2020/12/04 09:32:42;;;;;;;1.55;0.20;;;7.60;60.20;;;;;;5029908;28;80897;-69
2020/12/04 09:35:08;;;;;;;1.95;0.30;;;7.50;60.50;;;;;;5030165;28;80198;-70
2020/12/04 09:37:35;;;;;;;0.73;0.10;;;7.50;60.80;;;;;;5028722;28;82081;-70
2020/12/04 09:40:04;;;;;;;5.78;0.88;;;7.40;61.00;;;;;;5029735;28;80473;-69
2020/12/04 09:42:31;;;;;;;1.67;0.40;;;7.40;61.10;;;;;;5028224;28;82703;-69
2020/12/04 09:44:57;;;;;;;1.75;0.20;;;7.30;60.80;;;;;;5030049;28;80256;-70
2020/12/04 09:47:25;;;;;;;0.68;0.20;;;7.30;60.40;;;;;;5028082;28;80648;-68
2020/12/04 09:49:51;;;;;;;2.55;0.40;;;7.40;60.20;;;;;;5028294;28;80751;-68
2020/12/04 09:52:19;;;;;;;1.27;0.20;;;7.60;59.20;;;;;;5027961;28;82557;-69
2020/12/04 09:54:47;;;;;;;1.52;0.40;;;8.20;57.40;;;;;;5028444;28;82768;-69
2020/12/04 09:57:15;;;;;;;2.67;0.38;;;8.80;55.60;;;;;;5028298;28;81751;-69
2020/12/04 09:59:41;;;;;;;2.15;0.55;;;9.20;54.10;;;;;;5028281;28;81951;-68
2020/12/04 10:02:08;;;;;;;2.53;0.30;;;9.50;52.80;;;;;;5027601;28;81987;-69
2020/12/04 10:04:35;;;;;;;0.82;0.40;;;9.90;51.60;;;;;;5027904;28;80815;-68
2020/12/04 10:07:01;;;;;;;3.05;0.80;;;10.10;50.80;;;;;;5028120;28;80811;-66
2020/12/04 10:09:28;;;;;;;1.13;0.30;;;10.40;50.10;;;;;;5030034;28;79917;-66
2020/12/04 10:11:55;;;;;;;2.72;0.32;;;11.10;48.10;;;;;;5027956;28;84006;-64
2020/12/04 10:14:21;;;;;;;0.98;0.30;;;11.40;47.30;;;;;;5027747;28;82351;-65
2020/12/04 10:16:48;;;;;;;2.30;0.57;;;11.80;46.10;;;;;;5027419;28;82606;-64
2020/12/04 10:19:16;;;;;;;1.83;0.10;;;12.00;45.30;;;;;;5029814;28;79727;-66
2020/12/04 10:21:45;;;;;;;1.70;0.60;;;12.50;44.00;;;;;;5027713;28;81985;-66
2020/12/04 10:24:11;;;;;;;2.00;0.30;;;12.90;43.00;;;;;;5027623;28;79690;-64
2020/12/04 10:26:45;;;;;;;6.15;0.50;;;12.50;43.20;;;;;;5029201;28;79764;-63
2020/12/04 10:29:12;;;;;;;1.88;0.20;;;12.80;42.80;;;;;;5027389;28;83805;-63
2020/12/04 10:31:37;;;;;;;2.58;0.20;;;12.90;42.40;;;;;;5028368;28;80070;-64
2020/12/04 10:34:04;;;;;;;1.85;0.35;;;12.50;42.50;;;;;;5028989;28;79897;-64
2020/12/04 10:36:30;;;;;;;2.30;0.22;;;12.70;41.70;;;;;;5027580;28;81754;-63
2020/12/04 10:39:00;;;;;;;2.00;0.22;;;12.90;41.10;;;;;;5027583;28;81824;-66
2020/12/04 10:41:37;;;;;;;3.08;0.20;;;12.50;41.80;;;;;;5025876;28;81530;-64
2020/12/04 10:44:04;;;;;;;1.00;0.20;;;11.90;42.60;;;;;;5027481;28;80940;-64
2020/12/04 10:46:31;;;;;;;1.33;0.60;;;11.50;43.50;;;;;;5029296;28;79924;-67
2020/12/04 10:48:57;;;;;;;3.25;0.73;;;11.40;44.00;;;;;;5027917;28;80501;-66
2020/12/04 10:51:24;;;;;;;3.30;0.17;;;11.20;44.30;;;;;;5028075;28;82935;-64
2020/12/04 10:53:50;;;;;;;0.80;0.30;;;11.00;44.60;;;;;;5027121;28;82252;-65
2020/12/04 10:56:20;;;;;;;1.33;0.20;;;10.60;44.60;;;;;;5027772;28;83692;-69
2020/12/04 10:58:47;;;;;;;0.95;0.17;;;10.40;45.50;;;;;;5027210;28;80638;-68
2020/12/04 11:01:15;;;;;;;1.52;0.20;;;10.10;45.70;;;;;;5026909;28;81798;-68
2020/12/04 11:05:30;;;;;;;2.28;0.50;;;9.90;46.40;;;;;;5026892;28;82859;-67
2020/12/04 11:06:29;;;;;;;1.08;0.25;;;9.80;47.10;;;;;;5028033;28;81107;-69
2020/12/04 11:08:55;;;;;;;0.60;0.20;;;9.70;47.60;;;;;;5026534;28;82149;-66
2020/12/04 11:11:26;;;;;;;1.75;0.25;;;9.60;47.80;;;;;;5027279;28;83252;-66
2020/12/04 11:13:52;;;;;;;0.68;0.10;;;9.60;48.00;;;;;;5028832;28;80543;-68
2020/12/04 11:16:18;;;;;;;2.10;0.22;;;9.50;48.10;;;;;;5027225;28;82972;-71
2020/12/04 11:18:44;;;;;;;0.60;0.10;;;9.40;48.50;;;;;;5028490;28;81599;-69
2020/12/04 11:21:09;;;;;;;1.80;0.30;;;9.50;48.50;;;;;;5026953;28;82849;-66
2020/12/04 11:23:36;;;;;;;0.88;0.25;;;9.50;48.60;;;;;;5026750;28;80758;-68
2020/12/04 11:26:02;;;;;;;2.63;0.40;;;9.70;48.60;;;;;;5026729;28;81530;-64
2020/12/04 11:28:28;;;;;;;0.77;0.20;;;9.70;48.90;;;;;;5028350;28;79803;-63
2020/12/04 11:30:54;;;;;;;1.90;0.40;;;9.70;49.20;;;;;;5026329;28;81735;-64
2020/12/04 11:33:19;;;;;;;1.15;0.60;;;9.90;49.20;;;;;;5028239;28;80379;-66
2020/12/04 11:35:45;;;;;;;1.20;0.20;;;10.00;49.00;;;;;;5026596;28;83340;-64
2020/12/04 11:38:14;;;;;;;4.57;0.40;;;10.60;48.10;;;;;;5026671;28;82603;-64
2020/12/04 11:40:39;;;;;;;2.95;0.80;;;10.70;47.80;;;;;;5028303;28;80632;-63
2020/12/04 11:43:05;;;;;;;2.35;0.70;;;10.60;48.20;;;;;;5025503;28;82026;-65
2020/12/04 11:45:31;;;;;;;1.27;0.28;;;10.50;48.80;;;;;;5027033;28;81239;-67
2020/12/04 11:47:58;;;;;;;1.10;0.20;;;11.30;47.80;;;;;;5028964;28;80411;-65
2020/12/04 11:50:24;;;;;;;1.20;0.30;;;12.10;46.10;;;;;;5027933;28;80592;-67
2020/12/04 11:52:49;;;;;;;1.85;0.43;;;12.20;45.70;;;;;;5027811;28;79568;-70
2020/12/04 11:55:15;;;;;;;0.70;0.20;;;12.00;45.40;;;;;;5027683;28;80508;-64
2020/12/04 11:57:41;;;;;;;1.55;0.60;;;11.80;46.20;;;;;;5026242;28;82935;-67
2020/12/04 12:00:09;;;;;;;1.42;0.38;;;11.70;47.10;;;;;;5025516;28;82498;-69
2020/12/04 12:02:35;;;;;;;0.32;0.15;;;11.40;47.40;;;;;;5026352;28;80424;-66
2020/12/04 12:05:01;;;;;;;1.17;0.28;;;11.20;46.70;;;;;;5027868;28;80420;-66
2020/12/04 12:07:27;;;;;;;1.55;0.65;;;10.90;46.80;;;;;;5026268;28;82604;-66
2020/12/04 12:09:52;;;;;;;1.23;0.30;;;10.60;47.00;;;;;;5026260;28;82148;-63
2020/12/04 12:12:20;;;;;;;1.67;0.40;;;10.30;48.70;;;;;;5027620;28;80281;-66
2020/12/04 12:14:46;;;;;;;2.47;0.68;;;10.20;49.50;;;;;;5026068;28;81792;-64
2020/12/04 12:17:13;;;;;;;1.05;0.10;;;10.50;48.30;;;;;;5026157;28;80609;-67
2020/12/04 12:19:42;;;;;;;2.55;0.30;;;11.50;43.10;;;;;;5027593;28;81154;-63
2020/12/04 12:22:11;;;;;;;0.68;0.20;;;11.70;41.40;;;;;;5027540;28;80650;-65
2020/12/04 12:24:41;;;;;;;0.63;0.10;;;11.90;40.20;;;;;;5027399;28;81234;-65
2020/12/04 12:27:08;;;;;;;1.17;0.43;;;11.80;39.90;;;;;;5026187;28;80945;-64
2020/12/04 12:29:34;;;;;;;0.93;0.30;;;11.20;39.50;;;;;;5025779;28;83821;-66
2020/12/04 12:32:00;;;;;;;0.73;0.10;;;10.90;40.00;;;;;;5025650;28;81651;-67
2020/12/04 12:35:00;;;;;;;1.88;0.30;;;10.60;39.90;;;;;;5027774;28;79864;-64
2020/12/04 12:37:13;;;;;;;1.45;0.20;;;10.50;40.20;;;;;;5027035;28;80129;-67
2020/12/04 12:39:40;;;;;;;1.90;0.32;;;10.80;40.10;;;;;;5026113;28;84139;-71
2020/12/04 12:42:18;;;;;;;2.22;0.50;;;11.00;39.70;;;;;;5025506;28;80472;-67
2020/12/04 12:44:44;;;;;;;1.88;0.30;;;11.10;39.50;;;;;;5025703;28;81181;-66
2020/12/04 12:47:11;;;;;;;1.15;0.20;;;11.00;40.10;;;;;;5025514;28;81367;-63
2020/12/04 12:49:38;;;;;;;0.47;0.20;;;11.20;39.50;;;;;;5025580;28;82251;-66
2020/12/04 12:52:04;;;;;;;1.88;0.50;;;11.60;39.00;;;;;;5025161;28;82657;-63
2020/12/04 12:54:33;;;;;;;1.00;0.45;;;11.80;38.90;;;;;;5025403;28;80732;-67
2020/12/04 12:56:59;;;;;;;0.93;0.25;;;12.40;38.00;;;;;;5027607;28;80741;-65
2020/12/04 12:59:25;;;;;;;1.00;0.13;;;13.10;36.20;;;;;;5026953;28;80449;-64
2020/12/04 13:01:52;;;;;;;1.33;0.40;;;13.20;35.90;;;;;;5026909;28;80604;-63